Time;durP1;ratioP1;P1;durP2;ratioP2;P2;SDS_P1;SDS_P2;PMS_P1;PMS_P2;Temp;Humidity;BMP_temperature;BMP_pressure;BME280_temperature;BME280_humidity;BME280_pressure;Samples;Min_cycle;Max_cycle;Signal;HPM_P1;HPM_P2
2022/12/02 00:00:50;;;;;;;23.10;12.20;;;15.00;64.10;;;;;;5072633;28;20450;-81
2022/12/02 00:03:20;;;;;;;21.40;11.47;;;15.10;64.20;;;;;;5069987;28;20489;-81
2022/12/02 00:05:49;;;;;;;21.17;11.97;;;15.10;64.10;;;;;;5089099;28;20454;-82
2022/12/02 00:08:19;;;;;;;19.93;11.57;;;15.00;64.10;;;;;;5088636;28;20469;-81
2022/12/02 00:10:47;;;;;;;17.93;11.00;;;15.00;63.90;;;;;;5079374;28;20471;-81
2022/12/02 00:13:20;;;;;;;20.97;11.40;;;15.00;64.10;;;;;;5065755;28;20460;-81
2022/12/02 00:15:51;;;;;;;20.27;11.70;;;15.10;64.00;;;;;;5084022;28;20453;-81
2022/12/02 00:18:19;;;;;;;19.57;10.90;;;15.10;64.20;;;;;;5078748;28;20472;-82
2022/12/02 00:20:47;;;;;;;22.70;12.90;;;15.00;63.90;;;;;;5080754;28;20524;-82
2022/12/02 00:23:15;;;;;;;18.33;11.90;;;15.00;64.10;;;;;;5077813;28;20468;-82
2022/12/02 00:25:46;;;;;;;23.83;13.50;;;15.00;64.20;;;;;;5081576;28;20445;-82
2022/12/02 00:28:14;;;;;;;28.70;13.93;;;15.00;64.00;;;;;;5076920;28;20456;-82
2022/12/02 00:30:44;;;;;;;25.57;14.83;;;15.00;64.10;;;;;;5084631;28;20457;-82
2022/12/02 00:33:12;;;;;;;24.10;14.23;;;15.00;64.20;;;;;;5073094;28;20442;-82
2022/12/02 00:35:40;;;;;;;24.60;14.23;;;15.10;64.20;;;;;;5077610;28;20438;-82
2022/12/02 00:38:08;;;;;;;27.30;14.40;;;15.10;64.10;;;;;;5077444;28;20462;-82
2022/12/02 00:40:36;;;;;;;26.23;14.67;;;15.00;64.10;;;;;;5079907;28;20540;-82
2022/12/02 00:48:39;;;;;;;29.40;16.47;;;15.00;64.10;;;;;;5080042;28;20453;-82
2022/12/02 00:51:07;;;;;;;25.60;14.80;;;15.00;64.10;;;;;;5068126;28;20481;-82
2022/12/02 00:53:35;;;;;;;28.63;15.80;;;15.00;64.30;;;;;;5076818;28;20445;-83
2022/12/02 00:56:03;;;;;;;26.20;15.20;;;15.00;64.20;;;;;;5067691;28;20454;-82
2022/12/02 00:58:31;;;;;;;29.70;17.00;;;15.00;64.00;;;;;;5073621;28;20457;-82
2022/12/02 01:01:01;;;;;;;31.67;16.43;;;15.00;64.20;;;;;;5078595;28;20454;-82
2022/12/02 01:03:29;;;;;;;30.43;16.30;;;15.00;64.10;;;;;;5084965;28;20536;-82
2022/12/02 01:05:57;;;;;;;29.97;16.00;;;15.00;64.10;;;;;;5096307;28;20434;-82
2022/12/02 01:08:26;;;;;;;27.97;16.17;;;15.00;64.10;;;;;;5062924;28;20447;-82
2022/12/02 01:10:54;;;;;;;32.13;17.87;;;15.00;64.20;;;;;;5073297;28;20480;-82
2022/12/02 01:13:23;;;;;;;31.10;17.63;;;15.00;64.10;;;;;;5075660;28;20442;-82
2022/12/02 01:16:04;;;;;;;;;;;;;;;;;;;;;
2022/12/02 01:18:27;;;;;;;29.40;16.23;;;15.00;64.30;;;;;;5015999;28;20471;-82
2022/12/02 01:20:55;;;;;;;28.17;15.73;;;15.00;64.20;;;;;;5006831;28;20457;-82
2022/12/02 01:23:23;;;;;;;28.50;15.30;;;15.00;64.30;;;;;;5018051;28;20479;-81
2022/12/02 01:25:51;;;;;;;29.97;16.30;;;15.00;64.30;;;;;;5017420;28;20460;-81
2022/12/02 01:28:19;;;;;;;28.00;15.17;;;15.00;64.10;;;;;;4998689;28;20944;-81
2022/12/02 01:30:47;;;;;;;30.87;16.20;;;15.00;64.10;;;;;;4993220;28;20465;-81
2022/12/02 01:33:15;;;;;;;25.23;15.57;;;15.00;64.20;;;;;;4999101;28;20449;-81
2022/12/02 01:35:45;;;;;;;25.63;14.70;;;15.00;64.20;;;;;;4996808;28;20457;-81
2022/12/02 01:38:12;;;;;;;28.00;15.10;;;15.00;64.30;;;;;;4998924;28;20475;-82
2022/12/02 01:40:40;;;;;;;25.63;15.27;;;15.00;64.10;;;;;;4991982;28;20480;-80
2022/12/02 01:43:09;;;;;;;25.50;15.00;;;15.00;64.30;;;;;;4991060;28;20474;-81
2022/12/02 01:45:37;;;;;;;23.93;14.10;;;15.00;64.40;;;;;;4991168;28;20457;-81
2022/12/02 01:48:05;;;;;;;25.80;14.27;;;15.00;64.30;;;;;;4997520;28;20488;-81
2022/12/02 01:50:33;;;;;;;26.87;15.53;;;15.00;64.20;;;;;;4996284;28;20453;-80
2022/12/02 01:53:03;;;;;;;25.80;14.83;;;15.00;64.10;;;;;;4998750;28;20473;-82
2022/12/02 01:55:31;;;;;;;26.03;14.33;;;15.00;64.20;;;;;;4997781;28;20468;-81
2022/12/02 01:57:59;;;;;;;27.60;14.60;;;15.00;64.10;;;;;;4995256;28;20469;-81
2022/12/02 02:00:27;;;;;;;28.43;15.07;;;15.00;64.20;;;;;;5000497;28;20453;-81
2022/12/02 02:02:55;;;;;;;26.90;14.20;;;15.00;64.20;;;;;;4998298;28;20473;-81
2022/12/02 02:05:24;;;;;;;25.57;14.67;;;15.00;64.20;;;;;;4996561;28;20461;-81
2022/12/02 02:07:53;;;;;;;21.17;13.40;;;15.00;64.20;;;;;;4998574;28;20481;-81
2022/12/02 02:10:23;;;;;;;23.40;13.70;;;15.00;64.20;;;;;;4992021;28;20477;-81
2022/12/02 02:12:52;;;;;;;24.00;14.47;;;15.00;64.20;;;;;;4997248;28;20454;-80
2022/12/02 02:15:20;;;;;;;22.80;13.53;;;15.00;64.20;;;;;;4997511;28;20449;-81
2022/12/02 02:17:49;;;;;;;24.90;13.87;;;14.90;64.10;;;;;;4993978;28;20513;-80
2022/12/02 02:20:18;;;;;;;24.30;13.50;;;15.00;64.20;;;;;;4998757;28;20457;-80
2022/12/02 02:22:48;;;;;;;24.00;13.50;;;15.00;64.20;;;;;;4996989;28;20453;-80
2022/12/02 02:25:18;;;;;;;22.60;13.77;;;15.00;64.20;;;;;;4992907;28;20463;-81
2022/12/02 02:27:51;;;;;;;24.97;12.77;;;15.00;64.10;;;;;;4992908;28;20477;-79
2022/12/02 02:30:19;;;;;;;21.73;12.93;;;15.00;64.10;;;;;;4993403;28;20480;-80
2022/12/02 02:32:48;;;;;;;22.20;12.77;;;14.90;64.10;;;;;;4992006;28;20457;-80
2022/12/02 02:35:16;;;;;;;21.73;12.10;;;14.90;64.00;;;;;;4995639;28;20468;-80
2022/12/02 02:37:44;;;;;;;24.63;13.17;;;14.90;64.10;;;;;;4992755;28;20486;-80
2022/12/02 02:40:14;;;;;;;23.07;12.83;;;14.90;63.90;;;;;;4992218;28;20455;-80
2022/12/02 02:42:45;;;;;;;21.23;12.43;;;14.90;64.10;;;;;;4996889;28;20467;-81
2022/12/02 02:45:13;;;;;;;24.83;13.63;;;14.90;63.90;;;;;;4994522;28;20473;-81
2022/12/02 02:47:41;;;;;;;20.57;12.70;;;14.90;64.00;;;;;;4996906;28;20484;-81
2022/12/02 02:50:09;;;;;;;21.87;13.00;;;14.90;64.10;;;;;;4990046;28;20461;-80
2022/12/02 02:52:37;;;;;;;23.43;12.83;;;14.90;64.00;;;;;;4990857;28;20454;-81
2022/12/02 02:55:06;;;;;;;23.40;13.50;;;14.90;64.10;;;;;;4991375;28;20445;-80
2022/12/02 02:57:34;;;;;;;23.20;13.10;;;14.90;63.70;;;;;;4989404;28;20473;-80
2022/12/02 03:00:05;;;;;;;20.33;12.10;;;14.90;63.80;;;;;;4995930;28;20464;-81
2022/12/02 03:02:33;;;;;;;21.60;13.17;;;14.90;64.00;;;;;;4990783;28;20453;-81
2022/12/02 03:05:01;;;;;;;22.00;12.47;;;14.90;63.80;;;;;;4994976;28;20500;-80
2022/12/02 03:07:29;;;;;;;23.87;13.20;;;14.90;63.70;;;;;;4995457;28;20477;-80
2022/12/02 03:09:56;;;;;;;19.40;11.67;;;14.90;63.90;;;;;;4991660;28;20460;-81
2022/12/02 03:12:24;;;;;;;21.87;12.53;;;14.90;64.00;;;;;;4995495;28;20468;-80
2022/12/02 03:14:52;;;;;;;21.10;12.10;;;14.90;63.70;;;;;;5000107;28;20453;-80
2022/12/02 03:17:22;;;;;;;22.60;12.40;;;14.90;63.80;;;;;;4998214;28;20481;-81
2022/12/02 03:19:49;;;;;;;18.10;11.57;;;14.90;63.60;;;;;;4990953;28;20466;-80
2022/12/02 03:22:17;;;;;;;21.20;12.00;;;14.90;63.70;;;;;;4991275;28;20449;-80
2022/12/02 03:24:45;;;;;;;22.47;12.50;;;14.90;63.70;;;;;;4992396;28;20547;-81
2022/12/02 03:27:14;;;;;;;21.40;12.47;;;14.90;63.80;;;;;;4997906;28;20618;-81
2022/12/02 03:29:42;;;;;;;19.80;11.83;;;14.90;63.80;;;;;;5000037;28;20458;-80
2022/12/02 03:32:10;;;;;;;19.17;11.73;;;14.90;63.80;;;;;;4999423;28;20465;-80
2022/12/02 03:34:39;;;;;;;19.80;11.40;;;14.90;63.70;;;;;;4999833;28;20456;-80
2022/12/02 03:37:07;;;;;;;22.90;12.53;;;14.90;63.60;;;;;;4998230;28;20473;-80
2022/12/02 03:39:35;;;;;;;22.13;12.33;;;14.90;63.70;;;;;;4991490;28;20476;-81
2022/12/02 03:42:03;;;;;;;20.00;12.30;;;14.90;63.70;;;;;;4998121;28;20452;-80
2022/12/02 03:44:31;;;;;;;20.87;12.17;;;14.80;63.70;;;;;;4997683;28;20469;-81
2022/12/02 03:46:59;;;;;;;20.57;10.93;;;14.80;63.60;;;;;;4994858;28;20477;-81
2022/12/02 03:49:27;;;;;;;19.20;10.93;;;14.80;63.60;;;;;;4997254;28;20448;-81
2022/12/02 03:51:57;;;;;;;22.63;12.37;;;14.80;63.50;;;;;;4998391;28;20456;-81
2022/12/02 03:54:25;;;;;;;20.60;12.00;;;14.80;63.70;;;;;;4998255;28;20473;-81
2022/12/02 03:56:53;;;;;;;22.17;12.30;;;14.80;63.50;;;;;;4998188;28;20468;-81
2022/12/02 03:59:22;;;;;;;19.87;11.20;;;14.80;63.70;;;;;;4986066;28;20454;-81
2022/12/02 04:01:50;;;;;;;20.40;10.90;;;14.80;63.60;;;;;;4992761;28;20511;-81
2022/12/02 04:04:18;;;;;;;20.97;11.40;;;14.80;63.50;;;;;;4996437;28;20555;-81
2022/12/02 04:06:46;;;;;;;22.37;11.50;;;14.80;63.80;;;;;;4999053;28;20494;-81
2022/12/02 04:09:15;;;;;;;19.10;11.60;;;14.80;63.80;;;;;;4997604;28;20464;-81
2022/12/02 04:11:43;;;;;;;19.20;11.40;;;14.80;63.60;;;;;;5005836;28;20457;-81
2022/12/02 04:14:11;;;;;;;21.03;11.17;;;14.80;63.60;;;;;;4991630;28;20457;-81
2022/12/02 04:16:39;;;;;;;18.97;10.77;;;14.80;63.40;;;;;;4998108;28;20485;-81
2022/12/02 04:19:07;;;;;;;18.50;11.27;;;14.80;63.60;;;;;;4997248;28;20445;-81
2022/12/02 04:21:35;;;;;;;19.30;11.47;;;14.80;63.60;;;;;;4988807;28;20461;-81
2022/12/02 04:24:03;;;;;;;20.07;11.33;;;14.80;63.80;;;;;;4985752;28;20480;-81
2022/12/02 04:26:32;;;;;;;21.27;11.40;;;14.80;63.60;;;;;;4997252;28;20488;-81
2022/12/02 04:29:07;;;;;;;19.27;11.70;;;14.80;63.70;;;;;;4987723;28;20512;-80
2022/12/02 04:31:35;;;;;;;19.03;11.73;;;14.80;63.60;;;;;;4992659;28;20464;-80
2022/12/02 04:34:03;;;;;;;18.70;11.07;;;14.80;63.60;;;;;;4994878;28;20493;-81
2022/12/02 04:36:32;;;;;;;19.77;10.97;;;14.80;63.70;;;;;;4986650;28;20480;-81
2022/12/02 04:39:00;;;;;;;18.63;10.40;;;14.80;63.60;;;;;;4993724;28;20464;-81
2022/12/02 04:41:28;;;;;;;19.63;12.20;;;14.80;63.60;;;;;;4996721;28;20454;-81
2022/12/02 04:43:57;;;;;;;20.33;11.93;;;14.80;63.50;;;;;;4996394;28;20461;-81
2022/12/02 04:46:25;;;;;;;20.70;11.17;;;14.80;63.50;;;;;;4988974;28;20481;-81
2022/12/02 04:48:53;;;;;;;21.87;11.73;;;14.70;63.20;;;;;;4997271;28;20480;-81
2022/12/02 04:51:21;;;;;;;19.60;10.70;;;14.70;63.70;;;;;;4995550;28;20453;-79
2022/12/02 04:53:49;;;;;;;20.87;11.43;;;14.80;63.50;;;;;;4996627;28;20454;-79
2022/12/02 04:56:17;;;;;;;20.27;10.70;;;14.70;63.30;;;;;;4990491;28;20484;-80
2022/12/02 04:58:46;;;;;;;18.33;10.83;;;14.70;63.40;;;;;;4997429;28;20467;-80
2022/12/02 05:01:15;;;;;;;18.80;11.47;;;14.80;63.40;;;;;;4993944;28;20461;-80
2022/12/02 05:03:44;;;;;;;19.03;10.60;;;14.70;63.30;;;;;;4987180;28;20453;-80
2022/12/02 05:06:12;;;;;;;21.67;11.57;;;14.70;63.40;;;;;;4996329;28;20481;-80
2022/12/02 05:08:40;;;;;;;19.83;11.17;;;14.70;63.40;;;;;;4991259;28;20734;-80
2022/12/02 05:11:08;;;;;;;20.50;11.80;;;14.70;63.20;;;;;;4994995;28;20460;-80
2022/12/02 05:13:37;;;;;;;18.80;11.10;;;14.70;63.20;;;;;;4996652;28;20453;-81
2022/12/02 05:16:05;;;;;;;18.10;10.67;;;14.70;63.20;;;;;;4997360;28;20449;-81
2022/12/02 05:18:35;;;;;;;17.70;10.43;;;14.70;63.20;;;;;;4996076;28;20453;-81
2022/12/02 05:21:03;;;;;;;20.43;11.33;;;14.70;63.50;;;;;;4995434;28;20454;-81
2022/12/02 05:23:30;;;;;;;18.37;11.13;;;14.70;63.30;;;;;;4997729;28;20449;-81
2022/12/02 05:25:58;;;;;;;19.80;11.40;;;14.70;63.20;;;;;;5001827;28;20469;-81
2022/12/02 05:28:26;;;;;;;19.63;10.50;;;14.70;63.20;;;;;;4999653;28;20457;-81
2022/12/02 05:30:55;;;;;;;18.80;10.90;;;14.70;63.10;;;;;;5003412;28;20468;-81
2022/12/02 05:33:23;;;;;;;23.40;12.50;;;14.70;63.10;;;;;;5000561;28;20465;-81
2022/12/02 05:35:52;;;;;;;20.70;11.40;;;14.70;63.10;;;;;;5003127;28;20517;-81
2022/12/02 05:38:20;;;;;;;19.27;11.73;;;14.70;63.10;;;;;;4995819;28;20490;-81
2022/12/02 05:40:48;;;;;;;17.50;10.47;;;14.70;63.10;;;;;;4997504;28;20461;-81
2022/12/02 05:43:17;;;;;;;19.77;11.60;;;14.60;62.90;;;;;;4996802;28;20540;-81
2022/12/02 05:45:45;;;;;;;20.03;10.80;;;14.60;62.90;;;;;;4995794;28;20473;-81
2022/12/02 05:48:14;;;;;;;21.37;12.20;;;14.60;63.00;;;;;;4999293;28;20479;-81
2022/12/02 05:50:43;;;;;;;20.93;11.20;;;14.60;63.00;;;;;;4998447;28;20453;-80
2022/12/02 05:53:18;;;;;;;19.73;11.33;;;14.60;63.00;;;;;;4988183;28;20457;-81
2022/12/02 05:55:47;;;;;;;23.27;11.20;;;14.60;63.00;;;;;;4994626;28;20454;-81
2022/12/02 05:58:15;;;;;;;19.97;11.13;;;14.60;62.80;;;;;;4990047;28;20460;-81
2022/12/02 06:00:43;;;;;;;20.50;11.20;;;14.60;63.00;;;;;;4997010;28;20460;-81
2022/12/02 06:03:19;;;;;;;21.77;11.40;;;14.60;63.00;;;;;;4993028;28;20457;-81
2022/12/02 06:05:48;;;;;;;19.40;11.40;;;14.60;62.90;;;;;;4993616;28;20536;-81
2022/12/02 06:08:20;;;;;;;20.97;11.10;;;14.60;62.90;;;;;;4993328;28;20477;-81
2022/12/02 06:10:49;;;;;;;23.57;12.47;;;14.60;62.90;;;;;;4994789;28;20446;-81
2022/12/02 06:13:19;;;;;;;21.33;11.67;;;14.60;62.90;;;;;;5000582;28;20460;-81
2022/12/02 06:15:48;;;;;;;23.00;12.37;;;14.60;62.90;;;;;;4995727;28;20449;-81
2022/12/02 06:18:17;;;;;;;19.47;11.20;;;14.60;62.70;;;;;;4993010;28;20484;-81
2022/12/02 06:20:45;;;;;;;22.90;11.87;;;14.60;62.90;;;;;;4986424;28;20453;-81
2022/12/02 06:23:15;;;;;;;22.50;11.73;;;14.50;62.60;;;;;;4997182;28;20484;-81
2022/12/02 06:25:44;;;;;;;21.33;12.07;;;14.50;62.70;;;;;;4998644;28;20480;-81
2022/12/02 06:28:22;;;;;;;24.07;11.73;;;14.50;62.70;;;;;;4998231;28;20480;-81
2022/12/02 06:30:50;;;;;;;24.23;12.47;;;14.50;62.60;;;;;;4996818;28;20463;-81
2022/12/02 06:33:24;;;;;;;20.80;11.70;;;14.50;62.60;;;;;;4989233;28;20465;-81
2022/12/02 06:35:53;;;;;;;22.47;11.70;;;14.50;62.50;;;;;;4990546;28;20460;-81
2022/12/02 06:38:27;;;;;;;18.10;11.67;;;14.50;62.40;;;;;;5000220;28;20524;-81
2022/12/02 06:40:56;;;;;;;21.10;12.30;;;14.50;62.20;;;;;;4996466;28;20453;-81
2022/12/02 06:43:26;;;;;;;21.30;11.80;;;14.50;62.20;;;;;;4998536;28;20457;-81
2022/12/02 06:45:54;;;;;;;23.30;11.80;;;14.50;62.50;;;;;;4995297;28;20472;-81
2022/12/02 06:48:27;;;;;;;23.77;12.90;;;14.50;62.50;;;;;;4998622;28;20461;-82
2022/12/02 06:50:56;;;;;;;23.60;12.50;;;14.50;62.30;;;;;;4992093;28;20461;-82
2022/12/02 06:53:26;;;;;;;21.00;11.53;;;14.40;62.20;;;;;;4999032;28;20453;-80
2022/12/02 06:55:58;;;;;;;21.30;11.27;;;14.50;62.40;;;;;;4996311;28;20475;-82
2022/12/02 06:58:29;;;;;;;20.93;11.93;;;14.50;62.20;;;;;;4998050;28;20468;-82
2022/12/02 07:01:13;;;;;;;21.17;12.33;;;14.40;62.30;;;;;;4998493;28;20457;-81
2022/12/02 07:03:44;;;;;;;21.33;11.90;;;14.40;62.10;;;;;;5001031;28;20743;-81
2022/12/02 07:06:14;;;;;;;23.07;12.00;;;14.40;62.30;;;;;;5001910;28;20472;-82
2022/12/02 07:08:43;;;;;;;20.00;11.30;;;14.40;62.10;;;;;;4998322;28;20460;-81
2022/12/02 07:11:48;;;;;;;22.07;11.43;;;14.40;62.10;;;;;;4998579;28;20461;-80
2022/12/02 07:14:13;;;;;;;25.90;11.83;;;14.40;62.00;;;;;;5003434;28;20453;-81
2022/12/02 07:16:41;;;;;;;24.10;11.93;;;14.40;62.10;;;;;;5002617;28;20503;-80
2022/12/02 07:19:11;;;;;;;21.60;11.33;;;14.40;62.00;;;;;;4991420;28;20464;-80
2022/12/02 07:21:39;;;;;;;19.33;11.20;;;14.30;62.10;;;;;;4995781;28;20453;-80
2022/12/02 07:24:08;;;;;;;23.93;11.70;;;14.30;62.10;;;;;;4999675;28;20449;-81
2022/12/02 07:26:37;;;;;;;22.87;12.50;;;14.40;62.00;;;;;;4994779;28;20477;-81
2022/12/02 07:29:04;;;;;;;25.77;12.30;;;14.40;61.90;;;;;;4997311;28;20453;-81
2022/12/02 07:31:43;;;;;;;21.40;11.60;;;14.30;61.80;;;;;;4996341;28;20496;-81
2022/12/02 07:34:12;;;;;;;22.73;11.80;;;14.30;61.90;;;;;;4996597;28;20455;-80
2022/12/02 07:36:40;;;;;;;23.57;12.40;;;14.30;61.90;;;;;;4996219;28;20465;-81
2022/12/02 07:39:08;;;;;;;23.27;12.40;;;14.30;61.80;;;;;;4998408;28;20448;-80
2022/12/02 07:41:38;;;;;;;20.93;11.33;;;14.30;61.90;;;;;;4997180;28;20453;-81
2022/12/02 07:44:06;;;;;;;21.03;11.37;;;14.30;61.70;;;;;;4993016;28;20454;-81
2022/12/02 07:46:34;;;;;;;18.70;11.07;;;14.30;61.90;;;;;;4997339;28;20476;-81
2022/12/02 07:49:02;;;;;;;25.20;11.90;;;14.30;61.90;;;;;;4997820;28;20453;-80
2022/12/02 07:51:30;;;;;;;21.20;11.57;;;14.30;61.90;;;;;;4996866;28;20467;-80
2022/12/02 07:53:58;;;;;;;21.17;11.67;;;14.30;61.80;;;;;;4995435;28;20453;-81
2022/12/02 07:56:26;;;;;;;25.60;12.70;;;14.30;61.60;;;;;;5000171;28;20481;-81
2022/12/02 07:58:56;;;;;;;22.83;12.07;;;14.30;61.90;;;;;;5000978;28;20457;-81
2022/12/02 08:01:41;;;;;;;22.43;11.97;;;14.30;62.00;;;;;;4994112;28;20457;-81
2022/12/02 08:04:09;;;;;;;20.93;11.00;;;14.30;61.80;;;;;;5001113;28;20516;-80
2022/12/02 08:06:37;;;;;;;21.77;11.73;;;14.30;61.90;;;;;;4990692;28;20493;-81
2022/12/02 08:09:07;;;;;;;20.77;11.83;;;14.30;61.70;;;;;;5001874;28;20963;-81
2022/12/02 08:11:35;;;;;;;19.07;11.80;;;14.20;61.90;;;;;;4999773;28;20473;-81
2022/12/02 08:14:04;;;;;;;26.27;13.07;;;14.30;61.90;;;;;;4995508;28;20437;-81
2022/12/02 08:16:33;;;;;;;25.60;12.70;;;14.30;61.80;;;;;;4994437;28;20552;-80
2022/12/02 08:19:01;;;;;;;22.67;12.80;;;14.30;61.80;;;;;;4995482;28;20454;-81
2022/12/02 08:21:31;;;;;;;20.97;11.77;;;14.30;61.90;;;;;;5001095;28;20868;-81
2022/12/02 08:23:59;;;;;;;22.50;11.80;;;14.30;61.90;;;;;;4997262;28;20462;-81
2022/12/02 08:26:26;;;;;;;20.70;12.20;;;14.30;62.00;;;;;;5000024;28;20473;-81
2022/12/02 08:28:55;;;;;;;24.20;12.20;;;14.30;61.80;;;;;;4996909;28;20464;-81
2022/12/02 08:31:24;;;;;;;19.53;11.40;;;14.30;61.80;;;;;;5001929;28;20454;-81
2022/12/02 08:33:52;;;;;;;21.90;12.43;;;14.30;62.00;;;;;;5002163;28;20457;-81
2022/12/02 08:36:20;;;;;;;20.17;11.93;;;14.30;61.90;;;;;;4994429;28;20466;-81
2022/12/02 08:38:48;;;;;;;21.90;12.80;;;14.30;61.80;;;;;;5000917;28;20467;-81
2022/12/02 08:41:16;;;;;;;23.57;12.13;;;14.30;61.90;;;;;;4996506;28;20469;-81
2022/12/02 08:43:45;;;;;;;21.50;11.50;;;14.30;61.90;;;;;;5000070;28;20445;-81
2022/12/02 08:46:12;;;;;;;24.13;12.53;;;14.30;61.90;;;;;;4993640;28;20434;-81
2022/12/02 08:48:42;;;;;;;21.47;12.00;;;14.30;62.00;;;;;;4983767;28;20442;-81
2022/12/02 08:51:10;;;;;;;19.90;11.93;;;14.30;61.80;;;;;;5001504;28;20472;-81
2022/12/02 08:53:39;;;;;;;22.37;12.23;;;14.30;62.00;;;;;;4982261;28;20458;-81
2022/12/02 08:56:07;;;;;;;21.70;12.17;;;14.30;62.00;;;;;;4988768;28;20441;-81
2022/12/02 08:58:35;;;;;;;22.07;11.73;;;14.30;61.80;;;;;;4998614;28;20456;-80
2022/12/02 09:01:02;;;;;;;19.47;11.60;;;14.30;61.80;;;;;;5000078;28;20445;-82
2022/12/02 09:03:31;;;;;;;20.27;11.53;;;14.30;61.70;;;;;;4998224;28;20440;-81
2022/12/02 09:06:00;;;;;;;23.00;11.67;;;14.30;61.90;;;;;;4997522;28;20468;-80
2022/12/02 09:08:28;;;;;;;22.77;12.43;;;14.30;61.80;;;;;;4997813;28;20470;-81
2022/12/02 09:10:56;;;;;;;21.10;12.30;;;14.30;62.00;;;;;;4998728;28;20458;-81
2022/12/02 09:13:24;;;;;;;24.10;12.97;;;14.30;61.80;;;;;;4998265;28;20447;-81
2022/12/02 09:15:53;;;;;;;24.97;12.60;;;14.30;61.80;;;;;;4991532;28;20448;-81
2022/12/02 09:18:20;;;;;;;24.00;12.50;;;14.30;61.90;;;;;;4999090;28;20480;-80
2022/12/02 09:20:49;;;;;;;23.63;12.50;;;14.30;61.90;;;;;;4998976;28;20441;-80
2022/12/02 09:23:18;;;;;;;25.83;13.03;;;14.30;61.80;;;;;;4997410;28;20456;-81
2022/12/02 09:25:46;;;;;;;25.50;14.43;;;14.30;61.80;;;;;;4998938;28;20456;-81
2022/12/02 09:28:14;;;;;;;24.87;13.13;;;14.30;61.90;;;;;;4998407;28;20475;-81
2022/12/02 09:30:42;;;;;;;26.87;14.30;;;14.30;61.90;;;;;;4998817;28;20437;-81
2022/12/02 09:33:10;;;;;;;30.70;14.30;;;14.30;62.00;;;;;;4998300;28;20456;-80
2022/12/02 09:35:39;;;;;;;25.67;14.43;;;14.30;61.90;;;;;;4999255;28;20445;-81
2022/12/02 09:38:07;;;;;;;26.80;14.60;;;14.30;61.90;;;;;;4997850;28;20480;-81
2022/12/02 09:40:36;;;;;;;26.57;14.20;;;14.30;61.80;;;;;;4999064;28;20456;-80
2022/12/02 09:43:04;;;;;;;30.70;14.43;;;14.30;61.90;;;;;;5000798;28;20437;-81
2022/12/02 09:45:32;;;;;;;26.43;14.23;;;14.30;62.60;;;;;;5002739;28;20456;-81
2022/12/02 09:48:00;;;;;;;26.60;13.63;;;14.30;62.10;;;;;;5002305;28;20477;-81
2022/12/02 09:50:28;;;;;;;25.77;13.70;;;14.30;62.00;;;;;;5002213;28;20456;-81
2022/12/02 09:53:06;;;;;;;23.60;14.10;;;14.30;62.10;;;;;;5001167;28;20473;-81
2022/12/02 09:55:36;;;;;;;24.13;13.63;;;14.40;62.10;;;;;;5000119;28;20468;-80
2022/12/02 09:58:11;;;;;;;30.70;15.23;;;14.30;62.00;;;;;;5003338;28;20473;-81
2022/12/02 10:00:39;;;;;;;25.57;13.83;;;14.40;62.00;;;;;;5003671;28;20447;-82
2022/12/02 10:03:07;;;;;;;25.73;13.87;;;14.40;62.10;;;;;;5003295;28;20437;-82
2022/12/02 10:05:42;;;;;;;26.57;14.40;;;14.40;62.00;;;;;;5004155;28;20437;-82
2022/12/02 10:08:13;;;;;;;27.30;14.47;;;14.40;61.90;;;;;;5002862;28;20531;-82
2022/12/02 10:10:43;;;;;;;26.00;14.70;;;14.40;61.90;;;;;;5002596;28;20449;-80
2022/12/02 10:13:13;;;;;;;26.77;15.17;;;14.40;62.10;;;;;;5000273;28;20430;-80
2022/12/02 10:15:41;;;;;;;27.80;14.83;;;14.40;62.10;;;;;;5002365;28;20422;-80
2022/12/02 10:18:12;;;;;;;29.23;14.70;;;14.40;62.10;;;;;;5002837;28;20457;-80
2022/12/02 10:20:40;;;;;;;28.80;14.60;;;14.40;62.10;;;;;;5010479;28;20421;-80
2022/12/02 10:23:10;;;;;;;25.97;13.80;;;14.40;62.00;;;;;;4997231;28;20440;-81
2022/12/02 10:25:39;;;;;;;26.30;13.30;;;14.40;62.10;;;;;;4994809;28;20509;-80
2022/12/02 10:28:19;;;;;;;28.40;14.87;;;14.40;62.10;;;;;;4993593;28;20477;-80
2022/12/02 10:30:51;;;;;;;28.00;14.47;;;14.40;61.90;;;;;;4994461;28;20449;-81
2022/12/02 10:33:23;;;;;;;26.47;14.70;;;14.40;62.10;;;;;;4990418;28;20490;-82
2022/12/02 10:35:51;;;;;;;27.40;15.10;;;14.40;62.10;;;;;;4992913;28;20473;-82
2022/12/02 10:38:35;;;;;;;24.10;14.10;;;14.40;62.10;;;;;;4993524;28;20473;-80
2022/12/02 10:41:11;;;;;;;28.90;14.97;;;14.40;62.00;;;;;;4997079;28;20468;-81
2022/12/02 10:43:41;;;;;;;29.93;14.67;;;14.40;62.10;;;;;;4996409;28;20457;-81
2022/12/02 10:46:11;;;;;;;26.33;14.87;;;14.40;61.90;;;;;;4996366;28;20461;-80
2022/12/02 10:48:38;;;;;;;27.67;14.80;;;14.40;62.20;;;;;;4996177;28;20485;-80
2022/12/02 10:51:09;;;;;;;29.60;14.50;;;14.40;62.10;;;;;;4993081;28;20449;-81
2022/12/02 10:53:36;;;;;;;25.83;13.60;;;14.40;62.20;;;;;;4996720;28;20453;-80
2022/12/02 10:56:05;;;;;;;27.20;14.20;;;14.40;62.30;;;;;;4991744;28;20461;-79
2022/12/02 10:58:33;;;;;;;23.70;13.50;;;14.40;62.20;;;;;;4996955;28;20457;-80
2022/12/02 11:01:03;;;;;;;29.47;14.93;;;14.50;62.40;;;;;;4998719;28;20464;-82
2022/12/02 11:03:31;;;;;;;28.60;14.80;;;14.40;62.10;;;;;;4988016;28;20456;-81
2022/12/02 11:05:58;;;;;;;28.50;15.53;;;14.40;62.10;;;;;;4994915;28;20509;-79
2022/12/02 11:08:27;;;;;;;32.20;15.70;;;14.40;62.10;;;;;;4995542;28;20541;-81
2022/12/02 11:11:09;;;;;;;29.20;14.93;;;14.40;62.00;;;;;;4997422;28;20460;-81
2022/12/02 11:13:53;;;;;;;29.33;16.13;;;14.40;61.80;;;;;;4994584;28;20472;-81
2022/12/02 11:16:58;;;;;;;32.53;15.90;;;14.40;61.80;;;;;;4995443;28;20491;-81
2022/12/02 11:19:42;;;;;;;28.23;14.47;;;14.40;61.70;;;;;;4992974;28;20480;-82
2022/12/02 11:22:42;;;;;;;26.83;15.00;;;14.40;61.70;;;;;;4997052;28;20995;-81
2022/12/02 11:25:40;;;;;;;30.80;15.60;;;14.40;61.50;;;;;;4961819;28;20454;-81
2022/12/02 11:28:30;;;;;;;29.47;15.60;;;14.40;61.90;;;;;;4989186;28;20488;-80
2022/12/02 11:31:31;;;;;;;29.90;15.60;;;14.40;61.70;;;;;;4994757;28;20469;-80
2022/12/02 11:34:30;;;;;;;29.90;15.63;;;14.40;61.70;;;;;;4996036;28;20551;-81
2022/12/02 11:37:49;;;;;;;30.07;15.97;;;14.40;61.70;;;;;;4995230;28;20597;-80
2022/12/02 11:40:57;;;;;;;27.63;15.27;;;14.40;61.80;;;;;;4999662;28;20449;-81
2022/12/02 11:43:54;;;;;;;31.30;16.30;;;14.40;61.60;;;;;;4996491;28;20514;-81
2022/12/02 11:46:22;;;;;;;30.40;16.00;;;14.40;61.70;;;;;;4998474;28;20479;-80
2022/12/02 11:48:51;;;;;;;24.30;14.27;;;14.40;61.80;;;;;;4997810;28;20485;-81
2022/12/02 11:51:33;;;;;;;34.20;16.73;;;14.40;61.60;;;;;;4999058;28;20465;-81
2022/12/02 11:54:02;;;;;;;32.20;17.37;;;14.40;61.50;;;;;;4998772;28;20465;-81
2022/12/02 11:56:38;;;;;;;28.70;15.90;;;14.40;61.70;;;;;;4997715;28;20484;-80
2022/12/02 11:59:17;;;;;;;29.50;15.90;;;14.40;61.60;;;;;;4999821;28;20482;-81
2022/12/02 12:01:45;;;;;;;29.67;16.63;;;14.40;61.50;;;;;;4996880;28;20464;-79
2022/12/02 12:04:23;;;;;;;33.03;16.60;;;14.40;61.70;;;;;;4998314;28;20460;-80
2022/12/02 12:06:55;;;;;;;28.70;15.20;;;14.50;61.70;;;;;;4996262;28;20479;-79
2022/12/02 12:09:24;;;;;;;29.00;15.27;;;14.40;61.70;;;;;;4997192;28;20484;-79
2022/12/02 12:12:22;;;;;;;30.57;16.67;;;14.40;61.80;;;;;;4995828;28;20444;-80
2022/12/02 12:14:57;;;;;;;40.27;21.30;;;14.20;60.70;;;;;;4922091;29;20463;-81
2022/12/02 12:17:33;;;;;;;43.43;23.00;;;14.10;59.90;;;;;;4989260;28;20476;-79
2022/12/02 12:20:01;;;;;;;47.87;24.60;;;14.00;59.30;;;;;;5002503;28;20457;-81
2022/12/02 12:22:30;;;;;;;49.33;24.53;;;13.70;58.60;;;;;;5002116;28;20453;-80
2022/12/02 12:25:31;;;;;;;51.43;25.97;;;13.70;58.20;;;;;;5000409;28;20461;-80
2022/12/02 12:27:59;;;;;;;55.53;27.33;;;13.60;57.70;;;;;;5000614;28;20476;-80
2022/12/02 12:30:27;;;;;;;54.03;26.37;;;13.50;57.40;;;;;;4998602;28;20473;-79
2022/12/02 12:32:55;;;;;;;54.83;25.80;;;13.40;57.40;;;;;;5001827;28;20456;-81
2022/12/02 12:35:23;;;;;;;56.80;28.40;;;13.40;57.50;;;;;;5003297;28;20458;-82
2022/12/02 12:37:51;;;;;;;59.23;29.40;;;13.40;56.70;;;;;;5003745;28;20477;-81
2022/12/02 12:40:19;;;;;;;58.37;28.70;;;13.40;56.70;;;;;;5005210;28;20445;-80
2022/12/02 12:42:49;;;;;;;54.73;26.30;;;13.40;56.80;;;;;;4994808;28;20452;-81
2022/12/02 12:45:17;;;;;;;57.53;27.60;;;13.40;56.30;;;;;;5002734;28;20460;-80
2022/12/02 12:47:45;;;;;;;62.17;28.93;;;13.40;56.10;;;;;;5000231;28;20480;-81
2022/12/02 12:50:13;;;;;;;49.67;25.60;;;13.40;55.90;;;;;;4996138;28;20480;-81